sensor_id;sensor_type;location;lat;lon;timestamp;temperature;humidity
21682;DHT22;11002;48.256;10.084;2023-04-06T00:01:08;1.80;51.70
21682;DHT22;11002;48.256;10.084;2023-04-06T00:03:36;1.50;51.00
21682;DHT22;11002;48.256;10.084;2023-04-06T00:06:04;1.40;51.30
21682;DHT22;11002;48.256;10.084;2023-04-06T00:08:32;1.70;51.70
21682;DHT22;11002;48.256;10.084;2023-04-06T00:10:59;1.70;52.20
21682;DHT22;11002;48.256;10.084;2023-04-06T00:13:26;1.50;52.30
21682;DHT22;11002;48.256;10.084;2023-04-06T00:15:54;1.70;52.50
21682;DHT22;11002;48.256;10.084;2023-04-06T00:18:23;1.40;51.00
21682;DHT22;11002;48.256;10.084;2023-04-06T00:20:50;1.40;50.90
21682;DHT22;11002;48.256;10.084;2023-04-06T00:23:18;1.50;51.20
21682;DHT22;11002;48.256;10.084;2023-04-06T00:25:45;1.70;51.40
21682;DHT22;11002;48.256;10.084;2023-04-06T00:28:13;1.80;51.40
21682;DHT22;11002;48.256;10.084;2023-04-06T00:30:40;1.70;51.60
21682;DHT22;11002;48.256;10.084;2023-04-06T00:33:08;1.60;51.40
21682;DHT22;11002;48.256;10.084;2023-04-06T00:35:37;1.60;51.80
21682;DHT22;11002;48.256;10.084;2023-04-06T00:38:05;1.40;51.20
21682;DHT22;11002;48.256;10.084;2023-04-06T00:40:32;1.70;51.30
21682;DHT22;11002;48.256;10.084;2023-04-06T00:43:00;1.50;51.10
21682;DHT22;11002;48.256;10.084;2023-04-06T00:45:28;1.60;51.20
21682;DHT22;11002;48.256;10.084;2023-04-06T00:47:56;1.50;50.80
21682;DHT22;11002;48.256;10.084;2023-04-06T00:50:24;1.30;50.80
21682;DHT22;11002;48.256;10.084;2023-04-06T00:52:54;1.30;51.50
21682;DHT22;11002;48.256;10.084;2023-04-06T00:55:26;1.50;52.20
21682;DHT22;11002;48.256;10.084;2023-04-06T00:57:53;1.30;52.30
21682;DHT22;11002;48.256;10.084;2023-04-06T01:00:21;1.50;52.40
21682;DHT22;11002;48.256;10.084;2023-04-06T01:02:54;1.40;52.40
21682;DHT22;11002;48.256;10.084;2023-04-06T01:05:27;1.30;52.30
21682;DHT22;11002;48.256;10.084;2023-04-06T01:07:59;1.40;52.80
21682;DHT22;11002;48.256;10.084;2023-04-06T01:10:29;1.10;52.70
21682;DHT22;11002;48.256;10.084;2023-04-06T01:13:07;1.30;53.30
21682;DHT22;11002;48.256;10.084;2023-04-06T01:15:49;1.00;53.40
21682;DHT22;11002;48.256;10.084;2023-04-06T01:18:26;0.80;53.90
21682;DHT22;11002;48.256;10.084;2023-04-06T01:21:02;1.00;54.70
21682;DHT22;11002;48.256;10.084;2023-04-06T01:23:31;0.90;53.60
21682;DHT22;11002;48.256;10.084;2023-04-06T01:25:58;0.90;53.60
21682;DHT22;11002;48.256;10.084;2023-04-06T01:28:29;1.10;54.20
21682;DHT22;11002;48.256;10.084;2023-04-06T01:31:14;0.80;53.70
21682;DHT22;11002;48.256;10.084;2023-04-06T01:33:46;1.10;54.30
21682;DHT22;11002;48.256;10.084;2023-04-06T01:36:18;0.90;54.20
21682;DHT22;11002;48.256;10.084;2023-04-06T01:38:53;1.00;54.00
21682;DHT22;11002;48.256;10.084;2023-04-06T01:41:28;0.80;53.90
21682;DHT22;11002;48.256;10.084;2023-04-06T01:43:56;0.90;54.50
21682;DHT22;11002;48.256;10.084;2023-04-06T01:46:27;0.90;54.50
21682;DHT22;11002;48.256;10.084;2023-04-06T01:48:55;1.00;54.30
21682;DHT22;11002;48.256;10.084;2023-04-06T01:51:31;1.10;54.10
21682;DHT22;11002;48.256;10.084;2023-04-06T01:54:02;1.00;53.50
21682;DHT22;11002;48.256;10.084;2023-04-06T01:56:56;1.00;53.30
21682;DHT22;11002;48.256;10.084;2023-04-06T01:59:31;1.20;53.50
21682;DHT22;11002;48.256;10.084;2023-04-06T02:02:03;1.20;53.50
21682;DHT22;11002;48.256;10.084;2023-04-06T02:04:32;0.90;53.20
21682;DHT22;11002;48.256;10.084;2023-04-06T02:07:08;0.90;53.20
21682;DHT22;11002;48.256;10.084;2023-04-06T02:09:38;0.80;52.30
21682;DHT22;11002;48.256;10.084;2023-04-06T02:12:10;0.80;53.10
21682;DHT22;11002;48.256;10.084;2023-04-06T02:14:38;0.60;53.80
21682;DHT22;11002;48.256;10.084;2023-04-06T02:17:05;0.70;53.30
21682;DHT22;11002;48.256;10.084;2023-04-06T02:19:33;0.70;53.60
21682;DHT22;11002;48.256;10.084;2023-04-06T02:22:00;0.80;54.40
21682;DHT22;11002;48.256;10.084;2023-04-06T02:24:28;0.70;54.20
21682;DHT22;11002;48.256;10.084;2023-04-06T02:26:57;0.60;54.10
21682;DHT22;11002;48.256;10.084;2023-04-06T02:29:24;0.80;54.30
21682;DHT22;11002;48.256;10.084;2023-04-06T02:31:52;0.50;54.10
21682;DHT22;11002;48.256;10.084;2023-04-06T02:34:20;0.50;54.20
21682;DHT22;11002;48.256;10.084;2023-04-06T02:36:50;0.40;53.90
21682;DHT22;11002;48.256;10.084;2023-04-06T02:39:18;0.40;54.10
21682;DHT22;11002;48.256;10.084;2023-04-06T02:41:46;0.60;54.70
21682;DHT22;11002;48.256;10.084;2023-04-06T02:44:22;0.40;55.00
21682;DHT22;11002;48.256;10.084;2023-04-06T02:46:50;0.60;55.40
21682;DHT22;11002;48.256;10.084;2023-04-06T02:49:17;0.40;55.70
21682;DHT22;11002;48.256;10.084;2023-04-06T02:51:45;0.30;55.80
21682;DHT22;11002;48.256;10.084;2023-04-06T02:54:23;0.50;55.30
21682;DHT22;11002;48.256;10.084;2023-04-06T02:56:51;0.50;55.20
21682;DHT22;11002;48.256;10.084;2023-04-06T02:59:19;0.60;55.10
21682;DHT22;11002;48.256;10.084;2023-04-06T03:01:59;0.40;54.70
21682;DHT22;11002;48.256;10.084;2023-04-06T03:04:27;0.30;54.60
21682;DHT22;11002;48.256;10.084;2023-04-06T03:06:57;0.30;54.60
21682;DHT22;11002;48.256;10.084;2023-04-06T03:09:36;0.30;54.70
21682;DHT22;11002;48.256;10.084;2023-04-06T03:12:03;0.40;55.10
21682;DHT22;11002;48.256;10.084;2023-04-06T03:14:43;0.30;55.20
21682;DHT22;11002;48.256;10.084;2023-04-06T03:17:12;0.20;55.10
21682;DHT22;11002;48.256;10.084;2023-04-06T03:19:39;0.30;55.50
21682;DHT22;11002;48.256;10.084;2023-04-06T03:22:08;0.40;55.90
21682;DHT22;11002;48.256;10.084;2023-04-06T03:24:36;0.30;55.80
21682;DHT22;11002;48.256;10.084;2023-04-06T03:27:05;0.20;55.10
21682;DHT22;11002;48.256;10.084;2023-04-06T03:29:33;0.20;55.00
21682;DHT22;11002;48.256;10.084;2023-04-06T03:32:02;0.40;55.20
21682;DHT22;11002;48.256;10.084;2023-04-06T03:34:35;0.10;54.60
21682;DHT22;11002;48.256;10.084;2023-04-06T03:37:02;0.40;54.40
21682;DHT22;11002;48.256;10.084;2023-04-06T03:39:30;0.00;53.50
21682;DHT22;11002;48.256;10.084;2023-04-06T03:41:59;0.00;53.80
21682;DHT22;11002;48.256;10.084;2023-04-06T03:44:33;-0.20;54.40
21682;DHT22;11002;48.256;10.084;2023-04-06T03:47:00;-0.30;54.60
21682;DHT22;11002;48.256;10.084;2023-04-06T03:49:28;-0.10;55.20
21682;DHT22;11002;48.256;10.084;2023-04-06T03:51:59;-0.10;55.70
21682;DHT22;11002;48.256;10.084;2023-04-06T03:54:26;0.00;55.80
21682;DHT22;11002;48.256;10.084;2023-04-06T03:56:54;0.00;55.40
21682;DHT22;11002;48.256;10.084;2023-04-06T03:59:21;0.10;55.10
21682;DHT22;11002;48.256;10.084;2023-04-06T04:01:52;-0.10;54.70
21682;DHT22;11002;48.256;10.084;2023-04-06T04:04:20;0.10;54.90
21682;DHT22;11002;48.256;10.084;2023-04-06T04:06:48;-0.20;54.90
21682;DHT22;11002;48.256;10.084;2023-04-06T04:09:16;-0.10;55.00
21682;DHT22;11002;48.256;10.084;2023-04-06T04:11:44;-0.30;54.80
21682;DHT22;11002;48.256;10.084;2023-04-06T04:14:11;-0.30;54.10
21682;DHT22;11002;48.256;10.084;2023-04-06T04:16:39;-0.40;54.30
21682;DHT22;11002;48.256;10.084;2023-04-06T04:19:07;-0.50;55.20
21682;DHT22;11002;48.256;10.084;2023-04-06T04:21:42;-0.50;55.90
21682;DHT22;11002;48.256;10.084;2023-04-06T04:24:12;-0.40;56.20
21682;DHT22;11002;48.256;10.084;2023-04-06T04:26:41;-0.50;55.80
21682;DHT22;11002;48.256;10.084;2023-04-06T04:29:08;-0.50;55.90
21682;DHT22;11002;48.256;10.084;2023-04-06T04:31:38;-0.60;55.80
21682;DHT22;11002;48.256;10.084;2023-04-06T04:34:14;-0.50;56.00
21682;DHT22;11002;48.256;10.084;2023-04-06T04:36:42;-0.60;56.50
21682;DHT22;11002;48.256;10.084;2023-04-06T04:39:14;-0.80;57.40
21682;DHT22;11002;48.256;10.084;2023-04-06T04:41:47;-0.50;58.00
21682;DHT22;11002;48.256;10.084;2023-04-06T04:44:15;-0.60;57.70
21682;DHT22;11002;48.256;10.084;2023-04-06T04:46:42;-0.60;57.70
21682;DHT22;11002;48.256;10.084;2023-04-06T04:49:11;-0.50;57.40
21682;DHT22;11002;48.256;10.084;2023-04-06T04:51:40;-0.60;56.60
21682;DHT22;11002;48.256;10.084;2023-04-06T04:54:22;-0.70;57.10
21682;DHT22;11002;48.256;10.084;2023-04-06T04:56:52;-0.70;58.00
21682;DHT22;11002;48.256;10.084;2023-04-06T04:59:40;-0.40;58.30
21682;DHT22;11002;48.256;10.084;2023-04-06T05:02:15;-0.40;58.10
21682;DHT22;11002;48.256;10.084;2023-04-06T05:05:03;-0.50;57.70
21682;DHT22;11002;48.256;10.084;2023-04-06T05:07:31;-0.50;57.90
21682;DHT22;11002;48.256;10.084;2023-04-06T05:10:00;-0.50;58.20
21682;DHT22;11002;48.256;10.084;2023-04-06T05:12:34;-0.40;58.40
21682;DHT22;11002;48.256;10.084;2023-04-06T05:15:07;-0.30;58.40
21682;DHT22;11002;48.256;10.084;2023-04-06T05:17:37;-0.20;58.50
21682;DHT22;11002;48.256;10.084;2023-04-06T05:20:07;0.10;58.70
21682;DHT22;11002;48.256;10.084;2023-04-06T05:22:43;0.00;58.40
21682;DHT22;11002;48.256;10.084;2023-04-06T05:25:11;0.40;58.90
21682;DHT22;11002;48.256;10.084;2023-04-06T05:27:41;0.40;57.80
21682;DHT22;11002;48.256;10.084;2023-04-06T05:30:23;0.50;57.00
21682;DHT22;11002;48.256;10.084;2023-04-06T05:32:52;0.60;56.30
21682;DHT22;11002;48.256;10.084;2023-04-06T05:35:21;0.80;55.80
21682;DHT22;11002;48.256;10.084;2023-04-06T05:37:52;0.70;55.80
21682;DHT22;11002;48.256;10.084;2023-04-06T05:40:23;0.80;55.20
21682;DHT22;11002;48.256;10.084;2023-04-06T05:42:52;0.90;55.10
21682;DHT22;11002;48.256;10.084;2023-04-06T05:45:20;1.00;54.70
21682;DHT22;11002;48.256;10.084;2023-04-06T05:47:52;1.00;54.50
21682;DHT22;11002;48.256;10.084;2023-04-06T05:50:27;1.00;54.40
21682;DHT22;11002;48.256;10.084;2023-04-06T05:52:56;0.90;53.90
21682;DHT22;11002;48.256;10.084;2023-04-06T05:55:29;1.10;53.40
21682;DHT22;11002;48.256;10.084;2023-04-06T05:58:10;1.40;53.60
21682;DHT22;11002;48.256;10.084;2023-04-06T06:00:38;1.40;53.00
21682;DHT22;11002;48.256;10.084;2023-04-06T06:03:08;1.50;52.30
21682;DHT22;11002;48.256;10.084;2023-04-06T06:05:36;1.60;51.30
21682;DHT22;11002;48.256;10.084;2023-04-06T06:08:09;1.60;51.30
21682;DHT22;11002;48.256;10.084;2023-04-06T06:10:38;1.60;51.40
21682;DHT22;11002;48.256;10.084;2023-04-06T06:13:09;1.60;50.80
21682;DHT22;11002;48.256;10.084;2023-04-06T06:15:37;2.00;50.10
21682;DHT22;11002;48.256;10.084;2023-04-06T06:18:05;2.20;49.50
21682;DHT22;11002;48.256;10.084;2023-04-06T06:20:33;2.00;48.30
21682;DHT22;11002;48.256;10.084;2023-04-06T06:23:04;2.30;47.00
21682;DHT22;11002;48.256;10.084;2023-04-06T06:25:33;2.30;46.90
21682;DHT22;11002;48.256;10.084;2023-04-06T06:28:00;2.30;46.90
21682;DHT22;11002;48.256;10.084;2023-04-06T06:30:31;2.50;47.10
21682;DHT22;11002;48.256;10.084;2023-04-06T06:33:00;2.70;47.20
21682;DHT22;11002;48.256;10.084;2023-04-06T06:35:29;2.90;46.60
21682;DHT22;11002;48.256;10.084;2023-04-06T06:37:59;3.00;45.70
21682;DHT22;11002;48.256;10.084;2023-04-06T06:40:27;3.40;45.50
21682;DHT22;11002;48.256;10.084;2023-04-06T06:42:55;3.90;42.80
21682;DHT22;11002;48.256;10.084;2023-04-06T06:45:33;4.10;41.10
21682;DHT22;11002;48.256;10.084;2023-04-06T06:48:01;4.00;40.50
21682;DHT22;11002;48.256;10.084;2023-04-06T06:50:28;4.10;40.50
21682;DHT22;11002;48.256;10.084;2023-04-06T06:52:56;4.60;40.30
21682;DHT22;11002;48.256;10.084;2023-04-06T06:55:23;5.10;38.70
21682;DHT22;11002;48.256;10.084;2023-04-06T06:57:51;5.00;37.00
21682;DHT22;11002;48.256;10.084;2023-04-06T07:00:19;5.40;37.30
21682;DHT22;11002;48.256;10.084;2023-04-06T07:02:51;5.50;36.80
21682;DHT22;11002;48.256;10.084;2023-04-06T07:05:19;5.40;36.70
21682;DHT22;11002;48.256;10.084;2023-04-06T07:07:46;5.30;36.70
21682;DHT22;11002;48.256;10.084;2023-04-06T07:10:14;5.70;37.00
21682;DHT22;11002;48.256;10.084;2023-04-06T07:12:41;5.80;36.10
21682;DHT22;11002;48.256;10.084;2023-04-06T07:15:09;5.80;35.20
21682;DHT22;11002;48.256;10.084;2023-04-06T07:17:37;6.00;34.70
21682;DHT22;11002;48.256;10.084;2023-04-06T07:20:07;6.20;33.00
21682;DHT22;11002;48.256;10.084;2023-04-06T07:22:34;6.30;33.10
21682;DHT22;11002;48.256;10.084;2023-04-06T07:25:02;6.30;32.60
21682;DHT22;11002;48.256;10.084;2023-04-06T07:27:30;6.40;32.90
21682;DHT22;11002;48.256;10.084;2023-04-06T07:29:58;6.40;33.70
21682;DHT22;11002;48.256;10.084;2023-04-06T07:32:26;6.30;31.90
21682;DHT22;11002;48.256;10.084;2023-04-06T07:34:55;6.20;32.90
21682;DHT22;11002;48.256;10.084;2023-04-06T07:37:26;6.30;33.80
21682;DHT22;11002;48.256;10.084;2023-04-06T07:39:53;6.60;32.20
21682;DHT22;11002;48.256;10.084;2023-04-06T07:42:21;6.70;32.80
21682;DHT22;11002;48.256;10.084;2023-04-06T07:44:49;6.90;31.50
21682;DHT22;11002;48.256;10.084;2023-04-06T07:47:16;6.90;31.40
21682;DHT22;11002;48.256;10.084;2023-04-06T07:49:44;6.90;31.40
21682;DHT22;11002;48.256;10.084;2023-04-06T07:52:11;7.20;30.80
21682;DHT22;11002;48.256;10.084;2023-04-06T07:54:42;7.20;29.40
21682;DHT22;11002;48.256;10.084;2023-04-06T07:57:10;7.40;29.90
21682;DHT22;11002;48.256;10.084;2023-04-06T07:59:37;7.60;29.70
21682;DHT22;11002;48.256;10.084;2023-04-06T08:02:05;7.70;30.10
21682;DHT22;11002;48.256;10.084;2023-04-06T08:04:32;8.10;30.00
21682;DHT22;11002;48.256;10.084;2023-04-06T08:07:00;8.40;29.80
21682;DHT22;11002;48.256;10.084;2023-04-06T08:09:27;8.70;28.80
21682;DHT22;11002;48.256;10.084;2023-04-06T08:11:56;8.80;27.30
21682;DHT22;11002;48.256;10.084;2023-04-06T08:14:24;9.10;27.40
21682;DHT22;11002;48.256;10.084;2023-04-06T08:16:51;9.10;27.40
21682;DHT22;11002;48.256;10.084;2023-04-06T08:19:19;9.50;27.70
21682;DHT22;11002;48.256;10.084;2023-04-06T08:21:46;9.40;27.60
21682;DHT22;11002;48.256;10.084;2023-04-06T08:24:14;9.70;26.60
21682;DHT22;11002;48.256;10.084;2023-04-06T08:26:41;9.80;25.50
21682;DHT22;11002;48.256;10.084;2023-04-06T08:29:10;10.10;22.80
21682;DHT22;11002;48.256;10.084;2023-04-06T08:31:38;10.40;22.80
21682;DHT22;11002;48.256;10.084;2023-04-06T08:34:05;10.50;22.40
21682;DHT22;11002;48.256;10.084;2023-04-06T08:36:33;10.70;22.50
21682;DHT22;11002;48.256;10.084;2023-04-06T08:39:01;11.20;21.50
21682;DHT22;11002;48.256;10.084;2023-04-06T08:41:28;11.50;20.10
21682;DHT22;11002;48.256;10.084;2023-04-06T08:43:58;11.80;20.90
21682;DHT22;11002;48.256;10.084;2023-04-06T08:46:28;12.10;18.10
21682;DHT22;11002;48.256;10.084;2023-04-06T08:48:57;12.30;20.00
21682;DHT22;11002;48.256;10.084;2023-04-06T08:51:25;12.20;19.10
21682;DHT22;11002;48.256;10.084;2023-04-06T08:53:54;12.50;20.80
21682;DHT22;11002;48.256;10.084;2023-04-06T08:56:22;12.80;18.60
21682;DHT22;11002;48.256;10.084;2023-04-06T08:58:50;13.10;18.80
21682;DHT22;11002;48.256;10.084;2023-04-06T09:01:20;13.00;16.30
21682;DHT22;11002;48.256;10.084;2023-04-06T09:03:50;13.10;17.60
21682;DHT22;11002;48.256;10.084;2023-04-06T09:06:18;13.70;17.60
21682;DHT22;11002;48.256;10.084;2023-04-06T09:08:46;14.40;17.50
21682;DHT22;11002;48.256;10.084;2023-04-06T09:11:14;15.50;12.90
21682;DHT22;11002;48.256;10.084;2023-04-06T09:13:46;16.30;11.90
21682;DHT22;11002;48.256;10.084;2023-04-06T09:16:13;17.00;10.40
21682;DHT22;11002;48.256;10.084;2023-04-06T09:18:41;17.50;10.70
21682;DHT22;11002;48.256;10.084;2023-04-06T09:21:10;19.00;7.40
21682;DHT22;11002;48.256;10.084;2023-04-06T09:23:39;19.90;6.20
21682;DHT22;11002;48.256;10.084;2023-04-06T09:26:08;19.00;7.00
21682;DHT22;11002;48.256;10.084;2023-04-06T09:28:44;19.80;5.30
21682;DHT22;11002;48.256;10.084;2023-04-06T09:31:13;19.90;3.30
21682;DHT22;11002;48.256;10.084;2023-04-06T09:33:45;19.90;6.20
21682;DHT22;11002;48.256;10.084;2023-04-06T09:36:14;20.20;3.70
21682;DHT22;11002;48.256;10.084;2023-04-06T09:38:52;20.70;2.80
21682;DHT22;11002;48.256;10.084;2023-04-06T09:41:22;20.90;1.90
21682;DHT22;11002;48.256;10.084;2023-04-06T09:43:51;20.90;1.40
21682;DHT22;11002;48.256;10.084;2023-04-06T09:46:21;21.00;2.00
21682;DHT22;11002;48.256;10.084;2023-04-06T09:48:49;21.00;1.50
21682;DHT22;11002;48.256;10.084;2023-04-06T09:51:19;20.60;1.20
21682;DHT22;11002;48.256;10.084;2023-04-06T09:53:50;20.50;1.20
21682;DHT22;11002;48.256;10.084;2023-04-06T09:56:23;20.50;2.00
21682;DHT22;11002;48.256;10.084;2023-04-06T09:58:55;20.20;3.50
21682;DHT22;11002;48.256;10.084;2023-04-06T10:01:28;20.70;1.30
21682;DHT22;11002;48.256;10.084;2023-04-06T10:04:06;21.20;1.60
21682;DHT22;11002;48.256;10.084;2023-04-06T10:06:39;18.90;3.50
21682;DHT22;11002;48.256;10.084;2023-04-06T10:09:07;19.10;3.90
21682;DHT22;11002;48.256;10.084;2023-04-06T10:11:35;20.00;1.00
21682;DHT22;11002;48.256;10.084;2023-04-06T10:14:03;20.20;1.00
21682;DHT22;11002;48.256;10.084;2023-04-06T10:16:31;20.20;3.30
21682;DHT22;11002;48.256;10.084;2023-04-06T10:19:04;20.30;3.30
21682;DHT22;11002;48.256;10.084;2023-04-06T10:21:35;20.80;1.40
21682;DHT22;11002;48.256;10.084;2023-04-06T10:24:08;21.10;1.60
21682;DHT22;11002;48.256;10.084;2023-04-06T10:26:38;21.40;1.00
21682;DHT22;11002;48.256;10.084;2023-04-06T10:29:06;20.10;1.00
21682;DHT22;11002;48.256;10.084;2023-04-06T10:31:39;19.20;1.70
21682;DHT22;11002;48.256;10.084;2023-04-06T10:34:09;18.70;4.40
21682;DHT22;11002;48.256;10.084;2023-04-06T10:36:37;18.50;7.70
21682;DHT22;11002;48.256;10.084;2023-04-06T10:39:06;19.30;5.30
21682;DHT22;11002;48.256;10.084;2023-04-06T10:41:42;19.80;4.00
21682;DHT22;11002;48.256;10.084;2023-04-06T10:44:17;20.30;1.00
21682;DHT22;11002;48.256;10.084;2023-04-06T10:46:53;20.30;3.90
21682;DHT22;11002;48.256;10.084;2023-04-06T10:49:21;19.90;3.00
21682;DHT22;11002;48.256;10.084;2023-04-06T10:51:54;19.00;4.40
21682;DHT22;11002;48.256;10.084;2023-04-06T10:54:24;19.30;5.40
21682;DHT22;11002;48.256;10.084;2023-04-06T10:56:52;19.10;3.90
21682;DHT22;11002;48.256;10.084;2023-04-06T10:59:20;20.00;4.90
21682;DHT22;11002;48.256;10.084;2023-04-06T11:01:48;20.20;2.20
21682;DHT22;11002;48.256;10.084;2023-04-06T11:04:17;21.30;1.70
21682;DHT22;11002;48.256;10.084;2023-04-06T11:06:47;21.90;2.10
21682;DHT22;11002;48.256;10.084;2023-04-06T11:09:25;21.70;1.00
21682;DHT22;11002;48.256;10.084;2023-04-06T11:11:53;22.20;1.00
21682;DHT22;11002;48.256;10.084;2023-04-06T11:14:21;21.90;2.10
21682;DHT22;11002;48.256;10.084;2023-04-06T11:16:48;21.80;2.10
21682;DHT22;11002;48.256;10.084;2023-04-06T11:19:16;22.10;2.30
21682;DHT22;11002;48.256;10.084;2023-04-06T11:21:45;21.60;1.90
21682;DHT22;11002;48.256;10.084;2023-04-06T11:24:14;20.90;1.40
21682;DHT22;11002;48.256;10.084;2023-04-06T11:26:45;19.80;4.30
21682;DHT22;11002;48.256;10.084;2023-04-06T11:29:16;19.70;1.00
21682;DHT22;11002;48.256;10.084;2023-04-06T11:31:46;19.90;1.00
21682;DHT22;11002;48.256;10.084;2023-04-06T11:34:17;20.60;2.60
21682;DHT22;11002;48.256;10.084;2023-04-06T11:36:46;22.10;1.00
21682;DHT22;11002;48.256;10.084;2023-04-06T11:39:17;21.00;1.00
21682;DHT22;11002;48.256;10.084;2023-04-06T11:41:48;18.90;1.10
21682;DHT22;11002;48.256;10.084;2023-04-06T11:44:26;18.90;3.10
21682;DHT22;11002;48.256;10.084;2023-04-06T11:46:54;18.30;5.30
21682;DHT22;11002;48.256;10.084;2023-04-06T11:49:27;18.50;5.00
21682;DHT22;11002;48.256;10.084;2023-04-06T11:51:55;18.70;2.80
21682;DHT22;11002;48.256;10.084;2023-04-06T11:54:33;17.90;5.30
21682;DHT22;11002;48.256;10.084;2023-04-06T11:57:03;17.90;5.00
21682;DHT22;11002;48.256;10.084;2023-04-06T11:59:31;17.60;3.80
21682;DHT22;11002;48.256;10.084;2023-04-06T12:01:59;17.40;7.30
21682;DHT22;11002;48.256;10.084;2023-04-06T12:04:26;18.10;5.80
21682;DHT22;11002;48.256;10.084;2023-04-06T12:06:54;18.80;5.90
21682;DHT22;11002;48.256;10.084;2023-04-06T12:09:21;18.70;5.60
21682;DHT22;11002;48.256;10.084;2023-04-06T12:11:49;17.90;5.30
21682;DHT22;11002;48.256;10.084;2023-04-06T12:14:17;17.70;6.50
21682;DHT22;11002;48.256;10.084;2023-04-06T12:16:45;18.30;6.10
21682;DHT22;11002;48.256;10.084;2023-04-06T12:19:13;18.80;5.30
21682;DHT22;11002;48.256;10.084;2023-04-06T12:21:40;18.90;5.00
21682;DHT22;11002;48.256;10.084;2023-04-06T12:24:08;18.60;4.70
21682;DHT22;11002;48.256;10.084;2023-04-06T12:26:36;18.30;6.50
21682;DHT22;11002;48.256;10.084;2023-04-06T12:29:04;18.40;6.60
21682;DHT22;11002;48.256;10.084;2023-04-06T12:31:36;18.90;3.90
21682;DHT22;11002;48.256;10.084;2023-04-06T12:34:07;19.50;4.70
21682;DHT22;11002;48.256;10.084;2023-04-06T12:36:34;19.30;3.30
21682;DHT22;11002;48.256;10.084;2023-04-06T12:39:04;19.10;5.30
21682;DHT22;11002;48.256;10.084;2023-04-06T12:41:31;19.60;2.80
21682;DHT22;11002;48.256;10.084;2023-04-06T12:43:59;20.00;3.10
21682;DHT22;11002;48.256;10.084;2023-04-06T12:46:26;19.90;3.60
21682;DHT22;11002;48.256;10.084;2023-04-06T12:48:57;19.90;1.00
21682;DHT22;11002;48.256;10.084;2023-04-06T12:51:27;19.20;3.00
21682;DHT22;11002;48.256;10.084;2023-04-06T12:53:55;18.40;3.20
21682;DHT22;11002;48.256;10.084;2023-04-06T12:56:22;17.70;3.70
21682;DHT22;11002;48.256;10.084;2023-04-06T12:58:51;17.80;3.80
21682;DHT22;11002;48.256;10.084;2023-04-06T13:01:19;18.30;2.70
21682;DHT22;11002;48.256;10.084;2023-04-06T13:03:47;18.20;3.60
21682;DHT22;11002;48.256;10.084;2023-04-06T13:06:15;18.00;5.20
21682;DHT22;11002;48.256;10.084;2023-04-06T13:08:43;17.80;4.80
21682;DHT22;11002;48.256;10.084;2023-04-06T13:11:13;18.30;3.00
21682;DHT22;11002;48.256;10.084;2023-04-06T13:13:40;18.40;4.30
21682;DHT22;11002;48.256;10.084;2023-04-06T13:16:08;18.50;2.70
21682;DHT22;11002;48.256;10.084;2023-04-06T13:18:36;18.10;3.60
21682;DHT22;11002;48.256;10.084;2023-04-06T13:21:04;17.70;5.20
21682;DHT22;11002;48.256;10.084;2023-04-06T13:23:34;17.40;4.50
21682;DHT22;11002;48.256;10.084;2023-04-06T13:26:03;17.30;5.90
21682;DHT22;11002;48.256;10.084;2023-04-06T13:28:31;17.30;6.00
21682;DHT22;11002;48.256;10.084;2023-04-06T13:30:59;17.60;4.70
21682;DHT22;11002;48.256;10.084;2023-04-06T13:33:28;17.40;5.90
21682;DHT22;11002;48.256;10.084;2023-04-06T13:35:55;17.30;4.90
21682;DHT22;11002;48.256;10.084;2023-04-06T13:38:24;17.20;6.50
21682;DHT22;11002;48.256;10.084;2023-04-06T13:40:53;17.30;6.10
21682;DHT22;11002;48.256;10.084;2023-04-06T13:43:21;16.80;6.40
21682;DHT22;11002;48.256;10.084;2023-04-06T13:45:52;16.10;8.20
21682;DHT22;11002;48.256;10.084;2023-04-06T13:48:21;15.80;8.80
21682;DHT22;11002;48.256;10.084;2023-04-06T13:50:48;15.40;8.20
21682;DHT22;11002;48.256;10.084;2023-04-06T13:53:16;15.00;9.10
21682;DHT22;11002;48.256;10.084;2023-04-06T13:55:43;15.10;8.20
21682;DHT22;11002;48.256;10.084;2023-04-06T13:58:12;15.10;9.10
21682;DHT22;11002;48.256;10.084;2023-04-06T14:00:39;15.40;6.40
21682;DHT22;11002;48.256;10.084;2023-04-06T14:03:07;15.40;6.70
21682;DHT22;11002;48.256;10.084;2023-04-06T14:05:35;15.50;6.50
21682;DHT22;11002;48.256;10.084;2023-04-06T14:08:02;15.10;6.80
21682;DHT22;11002;48.256;10.084;2023-04-06T14:10:29;14.70;8.80
21682;DHT22;11002;48.256;10.084;2023-04-06T14:12:57;14.70;8.80
21682;DHT22;11002;48.256;10.084;2023-04-06T14:15:26;14.40;11.20
21682;DHT22;11002;48.256;10.084;2023-04-06T14:17:54;14.40;9.40
21682;DHT22;11002;48.256;10.084;2023-04-06T14:20:22;14.50;11.00
21682;DHT22;11002;48.256;10.084;2023-04-06T14:22:49;14.50;9.80
21682;DHT22;11002;48.256;10.084;2023-04-06T14:25:18;14.50;8.70
21682;DHT22;11002;48.256;10.084;2023-04-06T14:27:47;14.60;10.70
21682;DHT22;11002;48.256;10.084;2023-04-06T14:30:15;14.70;10.80
21682;DHT22;11002;48.256;10.084;2023-04-06T14:32:43;14.80;9.40
21682;DHT22;11002;48.256;10.084;2023-04-06T14:35:11;14.90;9.30
21682;DHT22;11002;48.256;10.084;2023-04-06T14:37:38;14.90;9.50
21682;DHT22;11002;48.256;10.084;2023-04-06T14:40:07;14.90;9.00
21682;DHT22;11002;48.256;10.084;2023-04-06T14:42:35;14.70;8.80
21682;DHT22;11002;48.256;10.084;2023-04-06T14:45:03;14.80;8.90
21682;DHT22;11002;48.256;10.084;2023-04-06T14:47:32;14.80;8.90
21682;DHT22;11002;48.256;10.084;2023-04-06T14:50:00;14.70;10.80
21682;DHT22;11002;48.256;10.084;2023-04-06T14:52:28;14.40;10.30
21682;DHT22;11002;48.256;10.084;2023-04-06T14:54:55;14.30;10.70
21682;DHT22;11002;48.256;10.084;2023-04-06T14:57:23;14.10;9.20
21682;DHT22;11002;48.256;10.084;2023-04-06T14:59:52;14.20;9.70
21682;DHT22;11002;48.256;10.084;2023-04-06T15:02:20;14.10;8.40
21682;DHT22;11002;48.256;10.084;2023-04-06T15:04:47;14.00;10.90
21682;DHT22;11002;48.256;10.084;2023-04-06T15:07:16;13.80;9.70
21682;DHT22;11002;48.256;10.084;2023-04-06T15:09:44;13.60;11.60
21682;DHT22;11002;48.256;10.084;2023-04-06T15:12:11;13.50;10.60
21682;DHT22;11002;48.256;10.084;2023-04-06T15:14:38;13.40;10.80
21682;DHT22;11002;48.256;10.084;2023-04-06T15:17:06;13.50;10.70
21682;DHT22;11002;48.256;10.084;2023-04-06T15:19:33;13.60;12.00
21682;DHT22;11002;48.256;10.084;2023-04-06T15:22:01;13.60;12.70
21682;DHT22;11002;48.256;10.084;2023-04-06T15:24:29;13.40;11.60
21682;DHT22;11002;48.256;10.084;2023-04-06T15:26:57;13.30;10.60
21682;DHT22;11002;48.256;10.084;2023-04-06T15:29:25;13.30;11.60
21682;DHT22;11002;48.256;10.084;2023-04-06T15:31:53;13.30;10.00
21682;DHT22;11002;48.256;10.084;2023-04-06T15:34:20;13.40;9.80
21682;DHT22;11002;48.256;10.084;2023-04-06T15:36:47;13.40;10.70
21682;DHT22;11002;48.256;10.084;2023-04-06T15:39:15;13.30;9.70
21682;DHT22;11002;48.256;10.084;2023-04-06T15:41:43;13.20;11.40